createdAt,value
2023-05-11T00:00:52.275Z,51.87
2023-05-11T00:01:52.251Z,51.44
2023-05-11T00:02:52.373Z,53.41
2023-05-11T00:03:52.327Z,59.75
2023-05-11T00:04:52.235Z,50.61
2023-05-11T00:05:52.241Z,43.67
2023-05-11T00:06:52.212Z,47.31
2023-05-11T00:07:52.246Z,49.49
2023-05-11T00:08:52.185Z,55.96
2023-05-11T00:09:52.179Z,51.91
2023-05-11T00:10:52.184Z,48.56
2023-05-11T00:11:52.934Z,45.97
2023-05-11T00:12:52.180Z,54.95
2023-05-11T00:13:52.161Z,54.59
2023-05-11T00:14:52.138Z,54.30
2023-05-11T00:15:52.175Z,51.13
2023-05-11T00:16:52.142Z,52.74
2023-05-11T00:17:52.139Z,49.24
2023-05-11T00:18:52.159Z,43.30
2023-05-11T00:19:52.099Z,49.42
2023-05-11T00:20:52.769Z,53.15
2023-05-11T00:21:52.101Z,55.75
2023-05-11T00:22:52.939Z,57.54
2023-05-11T00:23:52.062Z,51.76
2023-05-11T00:24:52.054Z,51.49
2023-05-11T00:25:52.972Z,52.46
2023-05-11T00:26:52.033Z,47.17
2023-05-11T00:27:52.063Z,50.31
2023-05-11T00:28:52.057Z,59.30
2023-05-11T00:29:52.492Z,46.56
2023-05-11T00:30:52.029Z,59.08
2023-05-11T00:31:52.112Z,50.11
2023-05-11T00:32:52.106Z,49.45
2023-05-11T00:33:51.981Z,50.84
2023-05-11T00:34:52.024Z,55.40
2023-05-11T00:35:52.013Z,50.03
2023-05-11T00:36:51.945Z,47.59
2023-05-11T00:37:51.956Z,45.30
2023-05-11T00:38:51.946Z,51.63
2023-05-11T00:39:52.014Z,46.25
2023-05-11T00:40:51.998Z,52.31
2023-05-11T00:41:51.940Z,53.24
2023-05-11T00:42:51.907Z,44.72
2023-05-11T00:43:51.906Z,53.58
2023-05-11T00:44:51.886Z,45.07
2023-05-11T00:45:51.929Z,52.79
2023-05-11T00:46:52.524Z,43.37
2023-05-11T00:47:51.929Z,49.59
2023-05-11T00:48:52.427Z,49.89
2023-05-11T00:49:52.491Z,49.78
2023-05-11T00:50:51.862Z,49.78
2023-05-11T00:51:51.824Z,49.49
2023-05-11T00:52:51.849Z,49.63
2023-05-11T00:53:51.840Z,43.35
2023-05-11T00:54:51.817Z,49.81
2023-05-11T00:55:51.853Z,43.59
2023-05-11T00:56:51.819Z,57.44
2023-05-11T00:57:51.921Z,55.09
2023-05-11T00:58:51.787Z,52.35
2023-05-11T00:59:52.473Z,43.62
2023-05-11T01:00:51.863Z,48.46
2023-05-11T01:01:51.816Z,51.85
2023-05-11T01:02:51.849Z,62.40
2023-05-11T01:03:51.774Z,45.36
2023-05-11T01:04:51.729Z,43.52
2023-05-11T01:05:51.720Z,44.12
2023-05-11T01:06:51.726Z,48.53
2023-05-11T01:07:51.709Z,43.51
2023-05-11T01:08:51.751Z,43.52
2023-05-11T01:09:52.462Z,43.54
2023-05-11T01:10:51.691Z,43.58
2023-05-11T01:11:51.688Z,47.87
2023-05-11T01:12:51.680Z,43.54
2023-05-11T01:13:51.675Z,43.54
2023-05-11T01:14:51.672Z,43.52
2023-05-11T01:15:51.686Z,43.52
2023-05-11T01:16:51.718Z,44.03
2023-05-11T01:17:51.739Z,54.22
2023-05-11T01:18:52.391Z,52.17
2023-05-11T01:19:51.978Z,43.62
2023-05-11T01:20:51.602Z,56.99
2023-05-11T01:21:51.603Z,49.14
2023-05-11T01:22:51.648Z,51.39
2023-05-11T01:23:51.580Z,54.45
2023-05-11T01:24:51.595Z,43.81
2023-05-11T01:25:51.590Z,44.87
2023-05-11T01:26:52.019Z,53.42
2023-05-11T01:27:51.597Z,44.79
2023-05-11T01:28:51.586Z,43.55
2023-05-11T01:29:52.021Z,43.56
2023-05-11T01:30:51.525Z,43.63
2023-05-11T01:31:51.645Z,43.64
2023-05-11T01:32:51.597Z,43.56
2023-05-11T01:33:51.541Z,48.12
2023-05-11T01:34:51.535Z,46.66
2023-05-11T01:35:51.492Z,49.88
2023-05-11T01:36:51.502Z,49.74
2023-05-11T01:37:51.464Z,43.59
2023-05-11T01:38:51.523Z,43.70
2023-05-11T01:39:51.475Z,43.52
2023-05-11T01:40:51.457Z,43.48
2023-05-11T01:41:51.460Z,49.00
2023-05-11T01:42:51.450Z,52.55
2023-05-11T01:43:51.449Z,48.11
2023-05-11T01:44:51.456Z,51.72
2023-05-11T01:45:51.618Z,44.29
2023-05-11T01:46:52.409Z,43.58
2023-05-11T01:47:51.434Z,50.26
2023-05-11T01:48:51.374Z,51.62
2023-05-11T01:49:51.405Z,49.48
2023-05-11T01:50:51.394Z,43.51
2023-05-11T01:51:52.344Z,43.43
2023-05-11T01:52:51.920Z,47.86
2023-05-11T01:53:51.345Z,51.54
2023-05-11T01:54:51.528Z,43.55
2023-05-11T01:55:51.350Z,49.42
2023-05-11T01:56:51.362Z,43.44
2023-05-11T01:57:51.341Z,43.37
2023-05-11T01:58:51.345Z,43.44
2023-05-11T01:59:51.922Z,43.79
2023-05-11T02:00:51.313Z,54.69
2023-05-11T02:01:51.320Z,43.96
2023-05-11T02:02:51.361Z,45.16
2023-05-11T02:03:51.305Z,43.56
2023-05-11T02:04:51.279Z,43.44
2023-05-11T02:05:51.260Z,49.07
2023-05-11T02:06:51.260Z,43.53
2023-05-11T02:07:51.303Z,43.41
2023-05-11T02:08:51.843Z,43.42
2023-05-11T02:09:51.229Z,43.41
2023-05-11T02:10:51.235Z,48.93
2023-05-11T02:11:51.921Z,43.39
2023-05-11T02:12:51.208Z,49.11
2023-05-11T02:13:51.202Z,48.43
2023-05-11T02:14:51.217Z,63.46
2023-05-11T02:15:51.232Z,45.94
2023-05-11T02:16:51.181Z,54.92
2023-05-11T02:17:51.219Z,52.36
2023-05-11T02:18:51.269Z,50.86
2023-05-11T02:19:51.164Z,46.78
2023-05-11T02:20:51.185Z,50.36
2023-05-11T02:21:51.121Z,57.53
2023-05-11T02:22:51.130Z,55.33
2023-05-11T02:23:51.132Z,59.24
2023-05-11T02:24:51.113Z,46.40
2023-05-11T02:25:51.135Z,45.40
2023-05-11T02:26:51.104Z,47.64
2023-05-11T02:27:51.093Z,52.42
2023-05-11T02:28:51.101Z,52.28
2023-05-11T02:29:51.082Z,51.02
2023-05-11T02:30:51.065Z,54.14
2023-05-11T02:31:51.102Z,47.14
2023-05-11T02:32:51.087Z,54.63
2023-05-11T02:33:52.764Z,47.91
2023-05-11T02:34:52.033Z,51.86
2023-05-11T02:35:51.013Z,52.45
2023-05-11T02:36:51.057Z,51.28
2023-05-11T02:37:51.002Z,58.29
2023-05-11T02:38:51.014Z,48.10
2023-05-11T02:39:50.984Z,52.76
2023-05-11T02:40:50.988Z,50.90
2023-05-11T02:41:51.025Z,50.32
2023-05-11T02:42:51.486Z,53.72
2023-05-11T02:43:50.969Z,57.30
2023-05-11T02:44:50.953Z,49.82
2023-05-11T02:45:50.983Z,53.44
2023-05-11T02:46:50.963Z,61.88
2023-05-11T02:47:51.016Z,56.88
2023-05-11T02:48:50.918Z,59.02
2023-05-11T02:49:50.949Z,60.64
2023-05-11T02:50:50.916Z,56.56
2023-05-11T02:51:50.929Z,58.47
2023-05-11T02:52:50.897Z,53.18
2023-05-11T02:53:50.896Z,51.09
2023-05-11T02:54:50.880Z,52.11
2023-05-11T02:55:50.911Z,58.26
2023-05-11T02:56:50.865Z,57.49
2023-05-11T02:57:50.902Z,58.21
2023-05-11T02:58:50.841Z,52.64
2023-05-11T02:59:50.869Z,52.03
2023-05-11T03:00:50.981Z,52.11
2023-05-11T03:01:50.941Z,56.95
2023-05-11T03:02:50.907Z,58.12
2023-05-11T03:03:50.934Z,58.19
2023-05-11T03:04:50.817Z,55.93
2023-05-11T03:05:50.789Z,56.92
2023-05-11T03:06:50.795Z,63.17
2023-05-11T03:07:50.769Z,61.13
2023-05-11T03:08:50.760Z,56.49
2023-05-11T03:09:50.824Z,58.36
2023-05-11T03:10:50.764Z,54.43
2023-05-11T03:11:50.759Z,55.57
2023-05-11T03:12:50.777Z,62.13
2023-05-11T03:13:50.730Z,59.77
2023-05-11T03:14:50.734Z,59.50
2023-05-11T03:15:50.697Z,57.31
2023-05-11T03:16:51.485Z,61.11
2023-05-11T03:17:50.721Z,56.37
2023-05-11T03:18:50.785Z,56.63
2023-05-11T03:19:51.374Z,61.37
2023-05-11T03:20:51.446Z,63.47
2023-05-11T03:21:50.655Z,67.16
2023-05-11T03:22:51.668Z,64.48
2023-05-11T03:23:50.672Z,57.53
2023-05-11T03:24:50.688Z,53.42
2023-05-11T03:25:50.633Z,59.02
2023-05-11T03:26:50.643Z,57.74
2023-05-11T03:27:50.659Z,60.16
2023-05-11T03:28:50.618Z,56.54
2023-05-11T03:29:51.374Z,64.85
2023-05-11T03:30:50.619Z,53.12
2023-05-11T03:31:51.485Z,64.26
2023-05-11T03:32:51.629Z,58.81
2023-05-11T03:33:50.596Z,65.52
2023-05-11T03:34:50.584Z,64.61
2023-05-11T03:35:50.570Z,62.89
2023-05-11T03:36:50.566Z,59.99
2023-05-11T03:37:50.544Z,60.93
2023-05-11T03:38:50.544Z,65.61
2023-05-11T03:39:51.030Z,67.46
2023-05-11T03:40:50.528Z,64.47
2023-05-11T03:41:50.553Z,65.16
2023-05-11T03:42:50.529Z,56.72
2023-05-11T03:43:51.715Z,68.53
2023-05-11T03:44:51.487Z,67.45
2023-05-11T03:45:51.030Z,63.67
2023-05-11T03:46:50.542Z,63.93
2023-05-11T04:04:11.301Z,63.65
2023-05-11T04:05:18.395Z,66.54
2023-05-11T04:06:12.433Z,62.99
2023-05-11T04:07:12.429Z,69.76
2023-05-11T04:08:12.409Z,64.17
2023-05-11T04:09:12.410Z,63.50
2023-05-11T04:10:12.382Z,64.40
2023-05-11T04:11:12.403Z,67.11
2023-05-11T04:12:12.380Z,71.42
2023-05-11T04:13:12.374Z,66.84
2023-05-11T04:14:12.374Z,62.99
2023-05-11T04:15:12.382Z,67.87
2023-05-11T04:16:12.406Z,67.16
2023-05-11T04:17:13.047Z,67.87
2023-05-11T04:18:12.385Z,63.14
2023-05-11T04:19:12.344Z,69.91
2023-05-11T04:20:12.353Z,64.27
2023-05-11T04:21:12.313Z,62.54
2023-05-11T04:22:12.296Z,64.88
2023-05-11T04:23:12.318Z,64.17
2023-05-11T04:24:12.267Z,59.05
2023-05-11T04:25:12.274Z,67.10
2023-05-11T04:26:12.269Z,64.63
2023-05-11T04:27:12.273Z,64.96
2023-05-11T04:28:12.248Z,65.35
2023-05-11T04:29:12.288Z,67.50
2023-05-11T04:30:13.061Z,64.98
2023-05-11T04:31:12.282Z,72.64
2023-05-11T04:32:12.248Z,68.66
2023-05-11T04:33:12.198Z,62.66
2023-05-11T04:34:12.230Z,67.40
2023-05-11T04:35:12.245Z,66.07
2023-05-11T04:36:12.178Z,67.15
2023-05-11T04:37:12.193Z,62.46
2023-05-11T04:38:12.239Z,67.98
2023-05-11T04:39:12.191Z,68.49
2023-05-11T04:40:12.180Z,68.15
2023-05-11T04:41:12.141Z,72.27
2023-05-11T04:42:12.157Z,70.09
2023-05-11T04:43:12.167Z,69.87
2023-05-11T04:44:12.152Z,72.29
2023-05-11T04:45:12.131Z,71.51
2023-05-11T04:46:12.258Z,66.06
2023-05-11T04:47:12.106Z,70.99
2023-05-11T04:48:12.167Z,67.95
2023-05-11T04:49:12.108Z,70.07
2023-05-11T04:50:12.070Z,68.90
2023-05-11T04:51:12.086Z,67.88
2023-05-11T04:52:12.090Z,62.28
2023-05-11T04:53:12.061Z,67.11
2023-05-11T04:54:12.078Z,70.25
2023-05-11T04:55:12.052Z,63.97
2023-05-11T04:56:12.055Z,72.16
2023-05-11T04:57:12.075Z,68.13
2023-05-11T04:58:12.033Z,67.06
2023-05-11T04:59:12.022Z,73.08
2023-05-11T05:00:12.118Z,65.77
2023-05-11T05:01:12.019Z,64.99
2023-05-11T05:02:12.006Z,71.56
2023-05-11T05:03:11.995Z,70.68
2023-05-11T05:04:12.171Z,67.28
2023-05-11T05:05:44.508Z,68.75
2023-05-11T05:06:11.973Z,68.05
2023-05-11T05:07:11.986Z,70.57
2023-05-11T05:08:11.969Z,70.53
2023-05-11T05:09:12.576Z,65.49
2023-05-11T05:10:11.960Z,69.09
2023-05-11T05:11:11.914Z,72.58
2023-05-11T05:12:12.912Z,66.34
2023-05-11T05:13:11.910Z,63.55
2023-05-11T05:14:11.935Z,66.61
2023-05-11T05:15:11.890Z,72.32
2023-05-11T05:16:11.924Z,74.78
2023-05-11T05:17:11.954Z,63.31
2023-05-11T05:18:11.988Z,65.71
2023-05-11T05:19:11.874Z,71.57
2023-05-11T05:20:15.018Z,73.10
2023-05-11T05:21:11.888Z,68.97
2023-05-11T05:22:11.818Z,66.89
2023-05-11T05:23:11.832Z,69.18
2023-05-11T05:24:11.842Z,70.65
2023-05-11T05:25:11.811Z,69.83
2023-05-11T05:26:11.857Z,69.09
2023-05-11T05:27:11.851Z,69.14
2023-05-11T05:28:11.781Z,62.60
2023-05-11T05:29:11.936Z,74.06
2023-05-11T05:30:11.777Z,71.45
2023-05-11T05:31:12.861Z,73.42
2023-05-11T05:32:12.759Z,71.41
2023-05-11T05:33:11.797Z,73.51
2023-05-11T05:34:13.999Z,73.06
2023-05-11T05:35:11.751Z,70.05
2023-05-11T05:36:11.737Z,71.47
2023-05-11T05:37:11.717Z,71.89
2023-05-11T05:38:11.716Z,70.68
2023-05-11T05:39:11.703Z,71.75
2023-05-11T05:40:11.708Z,72.41
2023-05-11T05:41:11.685Z,68.06
2023-05-11T05:42:11.697Z,69.59
2023-05-11T05:43:11.667Z,70.24
2023-05-11T05:44:11.675Z,68.98
2023-05-11T05:45:13.203Z,70.19
2023-05-11T05:46:11.708Z,68.39
2023-05-11T05:47:11.653Z,62.76
2023-05-11T05:48:11.659Z,66.60
2023-05-11T05:49:11.629Z,69.68
2023-05-11T05:50:11.695Z,70.32
2023-05-11T05:51:11.619Z,71.71
2023-05-11T05:52:11.625Z,71.69
2023-05-11T05:53:11.609Z,69.09
2023-05-11T05:54:11.589Z,69.73
2023-05-11T05:55:11.582Z,69.33
2023-05-11T05:56:12.579Z,72.00
2023-05-11T05:57:14.961Z,70.73
2023-05-11T05:58:11.570Z,66.27
2023-05-11T05:59:11.553Z,72.24
2023-05-11T06:00:11.541Z,67.36
2023-05-11T06:01:11.556Z,61.32
2023-05-11T06:02:11.577Z,70.96
2023-05-11T06:03:11.728Z,63.58
2023-05-11T06:04:11.648Z,69.14
2023-05-11T06:05:16.021Z,67.65
2023-05-11T06:06:11.546Z,59.58
2023-05-11T06:07:11.485Z,66.58
2023-05-11T06:08:11.646Z,70.77
2023-05-11T06:09:11.495Z,70.17
2023-05-11T06:10:11.451Z,69.82
2023-05-11T06:11:11.459Z,64.95
2023-05-11T06:12:12.454Z,66.58
2023-05-11T06:13:11.470Z,66.94
2023-05-11T06:14:12.070Z,68.45
2023-05-11T06:15:11.440Z,69.07
2023-05-11T06:16:11.455Z,69.21
2023-05-11T06:17:11.395Z,69.42
2023-05-11T06:18:11.423Z,69.60
2023-05-11T06:19:11.429Z,65.51
2023-05-11T06:20:12.382Z,72.20
2023-05-11T06:21:11.406Z,68.78
2023-05-11T06:22:11.376Z,69.28
2023-05-11T06:23:11.412Z,69.30
2023-05-11T06:24:11.340Z,69.78
2023-05-11T06:25:11.442Z,62.66
2023-05-11T06:26:11.312Z,65.21
2023-05-11T06:27:11.340Z,60.28
2023-05-11T06:28:11.344Z,68.19
2023-05-11T06:29:11.342Z,72.55
2023-05-11T06:30:11.335Z,58.55
2023-05-11T06:31:11.380Z,62.76
2023-05-11T06:32:11.313Z,68.81
2023-05-11T06:33:11.300Z,66.18
2023-05-11T06:34:11.278Z,63.40
2023-05-11T06:35:11.642Z,65.85
2023-05-11T06:36:11.251Z,67.47
2023-05-11T06:37:11.236Z,70.39
2023-05-11T06:38:11.225Z,70.74
2023-05-11T06:39:11.219Z,71.94
2023-05-11T06:40:11.249Z,68.48
2023-05-11T06:41:11.274Z,70.11
2023-05-11T06:42:15.129Z,67.23
2023-05-11T06:43:12.185Z,69.59
2023-05-11T06:44:11.206Z,64.26
2023-05-11T06:45:11.250Z,71.21
2023-05-11T06:46:11.237Z,69.53
2023-05-11T06:47:11.206Z,73.06
2023-05-11T06:48:11.180Z,69.05
2023-05-11T06:49:11.151Z,62.62
2023-05-11T06:50:11.141Z,72.28
2023-05-11T06:51:11.154Z,63.03
2023-05-11T06:52:11.179Z,71.65
2023-05-11T06:53:11.628Z,72.37
2023-05-11T06:54:11.153Z,66.00
2023-05-11T06:55:11.938Z,72.96
2023-05-11T06:56:11.127Z,69.87
2023-05-11T06:57:12.739Z,59.56
2023-05-11T06:58:11.082Z,72.48
2023-05-11T06:59:11.595Z,65.87
2023-05-11T07:00:11.609Z,66.83
2023-05-11T07:01:11.102Z,65.71
2023-05-11T07:02:11.058Z,69.40
2023-05-11T07:03:11.148Z,66.31
2023-05-11T07:04:11.055Z,70.22
2023-05-11T07:05:11.039Z,67.97
2023-05-11T07:06:11.027Z,67.48
2023-05-11T07:07:11.038Z,69.94
2023-05-11T07:08:11.017Z,68.80
2023-05-11T07:09:11.013Z,70.95
2023-05-11T07:10:10.970Z,68.45
2023-05-11T07:11:11.003Z,66.67
2023-05-11T07:12:11.048Z,70.97
2023-05-11T07:13:10.952Z,67.89
2023-05-11T07:14:10.995Z,73.41
2023-05-11T07:15:10.928Z,72.07
2023-05-11T07:16:10.943Z,74.02
2023-05-11T07:17:11.041Z,71.09
2023-05-11T07:18:10.969Z,67.87
2023-05-11T07:19:10.990Z,69.69
2023-05-11T07:20:10.957Z,67.86
2023-05-11T07:21:10.904Z,68.88
2023-05-11T07:22:12.211Z,68.29
2023-05-11T07:23:10.890Z,69.55
2023-05-11T07:24:10.980Z,71.66
2023-05-11T07:25:10.859Z,70.06
2023-05-11T07:26:10.844Z,66.27
2023-05-11T07:27:10.863Z,69.39
2023-05-11T07:28:10.851Z,72.24
2023-05-11T07:29:10.871Z,69.49
2023-05-11T07:30:10.834Z,66.57
2023-05-11T07:31:10.839Z,70.94
2023-05-11T07:32:10.808Z,69.85
2023-05-11T07:33:10.875Z,70.10
2023-05-11T07:34:10.802Z,68.70
2023-05-11T07:35:10.824Z,66.33
2023-05-11T07:36:10.767Z,68.49
2023-05-11T07:37:10.790Z,65.09
2023-05-11T07:38:10.759Z,73.91
2023-05-11T07:39:10.794Z,69.67
2023-05-11T07:40:10.803Z,70.02
2023-05-11T07:41:12.434Z,68.98
2023-05-11T07:42:11.747Z,69.52
2023-05-11T07:43:10.729Z,72.91
2023-05-11T07:44:10.719Z,65.89
2023-05-11T07:45:10.742Z,72.12
2023-05-11T07:46:10.766Z,72.90
2023-05-11T07:47:10.750Z,68.64
2023-05-11T07:48:10.723Z,71.12
2023-05-11T07:49:17.112Z,74.70
2023-05-11T07:50:12.717Z,71.72
2023-05-11T07:51:10.693Z,67.40
2023-05-11T07:52:10.652Z,71.38
2023-05-11T07:53:10.658Z,66.03
2023-05-11T07:54:10.669Z,63.70
2023-05-11T07:55:10.640Z,67.60
2023-05-11T07:56:10.664Z,69.89
2023-05-11T07:57:10.613Z,66.32
2023-05-11T07:58:10.651Z,68.90
2023-05-11T07:59:10.590Z,68.76
2023-05-11T08:00:11.262Z,66.60
2023-05-11T08:01:11.588Z,63.30
2023-05-11T08:02:13.417Z,65.76
2023-05-11T08:03:11.612Z,69.91
2023-05-11T08:04:10.564Z,67.32
2023-05-11T08:05:10.624Z,67.74
2023-05-11T08:06:10.606Z,68.16
2023-05-11T08:07:10.566Z,68.63
2023-05-11T08:08:10.545Z,65.03
2023-05-11T08:09:10.532Z,74.39
2023-05-11T08:10:10.506Z,65.74
2023-05-11T08:11:10.514Z,70.24
2023-05-11T08:12:10.514Z,67.30
2023-05-11T08:13:10.471Z,61.06
2023-05-11T08:14:10.502Z,65.93
2023-05-11T08:15:10.505Z,63.73
2023-05-11T08:16:10.548Z,71.35
2023-05-11T08:17:10.464Z,73.34
2023-05-11T08:18:10.552Z,62.03
2023-05-11T08:19:10.494Z,62.82
2023-05-11T08:20:10.434Z,74.12
2023-05-11T08:21:10.434Z,71.49
2023-05-11T08:22:10.434Z,71.42
2023-05-11T08:23:10.451Z,63.85
2023-05-11T08:24:10.396Z,66.94
2023-05-11T08:25:10.401Z,71.02
2023-05-11T08:26:10.390Z,66.20
2023-05-11T08:27:10.417Z,70.42
2023-05-11T08:28:10.420Z,66.39
2023-05-11T08:29:10.433Z,70.97
2023-05-11T08:30:11.648Z,55.43
2023-05-11T08:31:11.358Z,65.45
2023-05-11T08:32:10.435Z,62.66
2023-05-11T08:33:29.175Z,70.25
2023-05-11T08:34:19.085Z,73.26
2023-05-11T08:35:12.383Z,70.40
2023-05-11T08:36:10.347Z,63.53
2023-05-11T08:37:10.324Z,72.73
2023-05-11T08:38:10.304Z,69.72
2023-05-11T08:39:10.290Z,69.40
2023-05-11T08:40:11.458Z,66.11
2023-05-11T08:41:10.279Z,66.32
2023-05-11T08:42:10.322Z,73.06
2023-05-11T08:43:10.275Z,59.92
2023-05-11T08:44:10.344Z,64.38
2023-05-11T08:45:10.257Z,74.81
2023-05-11T08:46:10.280Z,71.50
2023-05-11T08:48:11.324Z,65.47
2023-05-11T08:49:10.975Z,73.39
2023-05-11T08:50:10.228Z,69.63
2023-05-11T08:51:10.184Z,68.29
2023-05-11T08:52:10.181Z,68.67
2023-05-11T08:53:10.170Z,66.07
2023-05-11T08:54:10.205Z,73.33
2023-05-11T08:55:10.211Z,70.02
2023-05-11T08:56:10.953Z,72.65
2023-05-11T08:57:12.481Z,64.54
2023-05-11T08:58:11.158Z,69.00
2023-05-11T08:59:10.189Z,68.68
2023-05-11T09:00:10.134Z,62.53
2023-05-11T09:01:10.213Z,72.68
2023-05-11T09:02:10.123Z,66.27
2023-05-11T09:03:10.170Z,70.17
2023-05-11T09:04:11.125Z,68.23
2023-05-11T09:05:10.150Z,65.75
2023-05-11T09:06:10.110Z,70.63
2023-05-11T09:07:10.165Z,64.15
2023-05-11T09:08:10.118Z,68.70
2023-05-11T09:09:10.192Z,68.93
2023-05-11T09:10:11.560Z,64.24
2023-05-11T09:11:10.053Z,74.70
2023-05-11T09:12:10.023Z,68.37
2023-05-11T09:13:10.029Z,71.87
2023-05-11T09:14:10.026Z,67.54
2023-05-11T09:15:10.015Z,70.26
2023-05-11T09:16:20.461Z,70.43
2023-05-11T09:17:12.071Z,69.61
2023-05-11T09:18:10.087Z,70.62
2023-05-11T09:19:10.054Z,66.58
2023-05-11T09:20:10.030Z,70.51
2023-05-11T09:21:09.942Z,67.72
2023-05-11T09:22:10.938Z,70.05
2023-05-11T09:23:09.939Z,66.09
2023-05-11T09:24:09.961Z,71.52
2023-05-11T09:25:09.936Z,68.66
2023-05-11T09:26:09.910Z,66.29
2023-05-11T09:27:09.971Z,68.23
2023-05-11T09:29:10.883Z,66.19
2023-05-11T09:30:09.944Z,64.67
2023-05-11T09:31:09.909Z,66.94
2023-05-11T09:32:09.885Z,69.28
2023-05-11T09:33:09.894Z,73.86
2023-05-11T09:34:09.932Z,73.52
2023-05-11T09:35:09.853Z,72.33
2023-05-11T09:36:09.890Z,65.95
2023-05-11T09:37:09.852Z,72.31
2023-05-11T09:38:09.901Z,69.26
2023-05-11T09:39:15.443Z,70.53
2023-05-11T09:41:11.703Z,74.77
2023-05-11T09:42:09.830Z,73.53
2023-05-11T09:43:10.093Z,68.39
2023-05-11T09:44:09.793Z,74.85
2023-05-11T09:45:09.772Z,73.18
2023-05-11T09:46:10.793Z,70.56
2023-05-11T09:47:09.786Z,71.49
2023-05-11T09:48:09.849Z,68.54
2023-05-11T09:49:09.796Z,64.50
2023-05-11T09:50:09.770Z,70.79
2023-05-11T09:51:09.725Z,60.34
2023-05-11T09:52:09.757Z,72.97
2023-05-11T09:53:09.715Z,72.36
2023-05-11T09:54:09.742Z,72.22
2023-05-11T09:55:09.696Z,64.73
2023-05-11T09:56:09.694Z,66.00
2023-05-11T09:57:09.734Z,73.59
2023-05-11T09:58:10.550Z,64.86
2023-05-11T09:59:09.665Z,71.40
2023-05-11T10:00:09.647Z,74.60
2023-05-11T10:01:09.723Z,71.82
2023-05-11T10:02:09.632Z,73.53
2023-05-11T10:03:09.827Z,72.35
2023-05-11T10:04:23.136Z,70.61
2023-05-11T10:05:11.651Z,67.25
2023-05-11T10:06:09.615Z,64.35
2023-05-11T10:07:09.631Z,67.43
2023-05-11T10:08:09.615Z,62.85
2023-05-11T10:09:09.605Z,75.97
2023-05-11T10:10:09.600Z,66.01
2023-05-11T10:11:09.625Z,74.18
2023-05-11T10:12:09.569Z,69.58
2023-05-11T10:13:09.575Z,66.71
2023-05-11T10:14:09.583Z,70.06
2023-05-11T10:15:09.540Z,71.58
2023-05-11T10:16:09.756Z,70.25
2023-05-11T10:17:09.540Z,70.49
2023-05-11T10:18:09.597Z,69.64
2023-05-11T10:19:09.738Z,66.99
2023-05-11T10:20:09.524Z,73.22
2023-05-11T10:21:09.555Z,67.26
2023-05-11T10:22:09.518Z,67.29
2023-05-11T10:23:09.498Z,70.05
2023-05-11T10:24:09.509Z,66.64
2023-05-11T10:25:09.474Z,74.28
2023-05-11T10:26:09.537Z,73.09
2023-05-11T10:27:09.493Z,66.23
2023-05-11T10:28:09.500Z,61.90
2023-05-11T10:29:09.461Z,69.93
2023-05-11T10:30:09.439Z,68.85
2023-05-11T10:31:09.528Z,70.07
2023-05-11T10:32:09.636Z,68.71
2023-05-11T10:33:09.515Z,74.88
2023-05-11T10:34:09.399Z,66.91
2023-05-11T10:35:09.440Z,64.22
2023-05-11T10:36:09.446Z,73.97
2023-05-11T10:37:09.403Z,72.45
2023-05-11T10:38:09.377Z,73.65
2023-05-11T10:39:09.407Z,65.79
2023-05-11T10:40:09.389Z,66.74
2023-05-11T10:41:09.345Z,73.71
2023-05-11T10:42:09.350Z,73.25
2023-05-11T10:43:09.367Z,71.45
2023-05-11T10:44:09.344Z,74.25
2023-05-11T10:45:09.310Z,71.79
2023-05-11T10:46:09.395Z,69.32
2023-05-11T10:47:09.283Z,68.17
2023-05-11T10:48:09.338Z,68.73
2023-05-11T10:49:10.250Z,70.09
2023-05-11T10:50:09.282Z,66.51
2023-05-11T10:51:09.271Z,65.16
2023-05-11T10:52:09.262Z,68.51
2023-05-11T10:53:09.280Z,72.89
2023-05-11T10:54:09.236Z,72.27
2023-05-11T10:55:09.238Z,63.81
2023-05-11T10:56:09.327Z,74.12
2023-05-11T10:57:09.242Z,67.76
2023-05-11T10:58:09.214Z,72.21
2023-05-11T10:59:09.201Z,69.29
2023-05-11T11:00:09.243Z,75.05
2023-05-11T11:01:09.354Z,69.57
2023-05-11T11:02:09.178Z,72.91
2023-05-11T11:03:10.199Z,72.72
2023-05-11T11:04:09.161Z,69.83
2023-05-11T11:05:09.301Z,69.83
2023-05-11T11:06:09.292Z,71.87
2023-05-11T11:07:09.130Z,72.78
2023-05-11T11:08:09.179Z,72.08
2023-05-11T11:09:09.104Z,67.50
2023-05-11T11:10:09.147Z,70.03
2023-05-11T11:11:09.101Z,67.92
2023-05-11T11:12:09.096Z,72.10
2023-05-11T11:13:09.137Z,68.19
2023-05-11T11:14:09.149Z,68.56
2023-05-11T11:15:09.122Z,69.09
2023-05-11T11:16:09.097Z,72.41
2023-05-11T11:17:10.006Z,71.68
2023-05-11T11:18:10.107Z,73.76
2023-05-11T11:19:09.127Z,66.97
2023-05-11T11:20:09.052Z,72.30
2023-05-11T11:21:09.096Z,72.51
2023-05-11T11:22:09.045Z,68.78
2023-05-11T11:23:09.012Z,71.03
2023-05-11T11:24:09.005Z,66.23
2023-05-11T11:25:09.021Z,75.14
2023-05-11T11:26:09.038Z,65.49
2023-05-11T11:27:09.017Z,73.21
2023-05-11T11:28:09.043Z,70.25
2023-05-11T11:29:08.987Z,68.70
2023-05-11T11:30:09.005Z,71.16
2023-05-11T11:31:09.002Z,70.87
2023-05-11T11:32:08.962Z,72.03
2023-05-11T11:33:09.015Z,70.94
2023-05-11T11:34:08.930Z,70.92
2023-05-11T11:35:08.919Z,68.84
2023-05-11T11:36:08.922Z,69.34
2023-05-11T11:37:08.923Z,65.24
2023-05-11T11:38:08.967Z,70.57
2023-05-11T11:39:08.949Z,69.94
2023-05-11T11:40:14.514Z,66.77
2023-05-11T11:41:10.878Z,70.20
2023-05-11T11:42:08.962Z,68.22
2023-05-11T11:43:08.888Z,70.36
2023-05-11T11:44:08.882Z,67.35
2023-05-11T11:45:08.889Z,72.16
2023-05-11T11:46:08.899Z,72.44
2023-05-11T11:47:08.834Z,71.55
2023-05-11T11:48:08.848Z,73.93
2023-05-11T11:49:08.857Z,71.56
2023-05-11T11:50:08.815Z,70.64
2023-05-11T11:51:08.818Z,70.18
2023-05-11T11:52:08.835Z,67.47
2023-05-11T11:53:08.798Z,69.52
2023-05-11T11:54:09.165Z,70.38
2023-05-11T11:55:08.785Z,70.89
2023-05-11T11:56:08.756Z,61.89
2023-05-11T11:57:08.777Z,68.99
2023-05-11T11:58:08.780Z,69.36
2023-05-11T11:59:08.802Z,68.52
2023-05-11T12:00:08.757Z,71.21
2023-05-11T12:01:08.717Z,71.93
2023-05-11T12:02:08.719Z,67.01
2023-05-11T12:03:08.787Z,64.86
2023-05-11T12:04:08.786Z,71.86
2023-05-11T12:05:08.854Z,72.13
2023-05-11T12:06:08.678Z,70.27
2023-05-11T12:07:08.738Z,67.44
2023-05-11T12:08:08.696Z,67.16
2023-05-11T12:09:08.764Z,69.28
2023-05-11T12:10:08.713Z,70.60
2023-05-11T12:11:08.691Z,71.53
2023-05-11T12:12:08.761Z,68.67
2023-05-11T12:13:08.645Z,68.31
2023-05-11T12:14:08.684Z,73.05
2023-05-11T12:15:08.617Z,69.00
2023-05-11T12:16:08.683Z,70.56
2023-05-11T12:17:08.615Z,70.54
2023-05-11T12:18:08.634Z,68.69
2023-05-11T12:19:08.682Z,65.67
2023-05-11T12:20:08.729Z,70.61
2023-05-11T12:21:08.586Z,71.22
2023-05-11T12:22:08.579Z,71.82
2023-05-11T12:23:08.543Z,71.09
2023-05-11T12:24:08.546Z,73.67
2023-05-11T12:25:08.538Z,70.32
2023-05-11T12:26:08.553Z,70.34
2023-05-11T12:27:08.566Z,66.84
2023-05-11T12:28:08.496Z,75.65
2023-05-11T12:29:08.537Z,75.42
2023-05-11T12:30:08.625Z,70.94
2023-05-11T12:31:08.509Z,74.04
2023-05-11T12:32:08.593Z,66.37
2023-05-11T12:33:08.573Z,73.56
2023-05-11T12:34:08.484Z,69.77
2023-05-11T12:35:08.451Z,69.56
2023-05-11T12:36:08.465Z,72.78
2023-05-11T12:37:08.470Z,72.23
2023-05-11T12:38:08.444Z,69.00
2023-05-11T12:39:08.443Z,68.72
2023-05-11T12:40:08.466Z,67.20
2023-05-11T12:41:09.089Z,72.88
2023-05-11T12:42:08.427Z,72.62
2023-05-11T12:43:08.416Z,69.68
2023-05-11T12:44:08.423Z,71.74
2023-05-11T12:45:08.390Z,70.87
2023-05-11T12:46:08.442Z,71.14
2023-05-11T12:47:08.368Z,73.94
2023-05-11T12:48:08.462Z,73.41
2023-05-11T12:49:08.346Z,69.25
2023-05-11T12:50:08.434Z,69.45
2023-05-11T12:51:08.311Z,71.73
2023-05-11T12:52:08.392Z,72.11
2023-05-11T12:53:08.318Z,73.74
2023-05-11T12:54:08.297Z,72.86
2023-05-11T12:55:08.312Z,71.80
2023-05-11T12:56:08.301Z,69.83
2023-05-11T12:57:08.296Z,68.91
2023-05-11T12:58:08.306Z,73.76
2023-05-11T12:59:08.295Z,72.41
2023-05-11T13:00:08.273Z,72.49
2023-05-11T13:01:09.721Z,68.83
2023-05-11T13:02:08.233Z,71.03
2023-05-11T13:03:08.432Z,72.72
2023-05-11T13:04:08.302Z,72.59
2023-05-11T13:05:08.250Z,71.55
2023-05-11T13:06:08.266Z,70.79
2023-05-11T13:07:09.199Z,72.28
2023-05-11T13:08:09.184Z,73.36
2023-05-11T13:09:08.191Z,75.53
2023-05-11T13:10:08.220Z,72.96
2023-05-11T13:11:08.197Z,76.74
2023-05-11T13:12:08.194Z,69.60